createdAt,value
2018-03-28T00:01:01.073Z,1005.7
2018-03-28T00:02:10.760Z,1005.69
2018-03-28T00:03:20.453Z,1005.71
2018-03-28T00:04:30.408Z,1005.7
2018-03-28T00:05:40.361Z,1005.66
2018-03-28T00:06:49.816Z,1005.7
2018-03-28T00:07:59.575Z,1005.68
2018-03-28T00:09:09.276Z,1005.68
2018-03-28T00:10:18.462Z,1005.61
2018-03-28T00:11:28.426Z,1005.62
2018-03-28T00:12:38.130Z,1005.57
2018-03-28T00:13:48.098Z,1005.53
2018-03-28T00:14:57.786Z,1005.5
2018-03-28T00:16:07.493Z,1005.49
2018-03-28T00:17:16.928Z,1005.47
2018-03-28T00:18:26.367Z,1005.45
2018-03-28T00:19:36.060Z,1005.46
2018-03-28T00:20:45.813Z,1005.43
2018-03-28T00:21:55.801Z,1005.41
2018-03-28T00:23:05.506Z,1005.36
2018-03-28T00:24:15.204Z,1005.36
2018-03-28T00:25:25.177Z,1005.34
2018-03-28T00:26:35.136Z,1005.37
2018-03-28T00:27:45.094Z,1005.3
2018-03-28T00:28:55.062Z,1005.29
2018-03-28T00:30:04.752Z,1005.3
2018-03-28T00:31:14.710Z,1005.27
2018-03-28T00:32:24.146Z,1005.23
2018-03-28T00:33:34.113Z,1005.24
2018-03-28T00:34:43.804Z,1005.29
2018-03-28T00:35:53.239Z,1005.28
2018-03-28T00:37:03.198Z,1005.24
2018-03-28T00:38:12.916Z,1005.25
2018-03-28T00:39:22.895Z,1005.27
2018-03-28T00:40:32.367Z,1005.23
2018-03-28T00:41:42.066Z,1005.21
2018-03-28T00:42:52.027Z,1005.27
2018-03-28T00:44:01.977Z,1005.22
2018-03-28T00:45:11.689Z,1005.19
2018-03-28T00:46:21.379Z,1005.2
2018-03-28T00:47:31.117Z,1005.18
2018-03-28T00:48:40.594Z,1005.17
2018-03-28T00:49:50.380Z,1005.13
2018-03-28T00:51:00.325Z,1005.12
2018-03-28T00:52:10.285Z,1005.14
2018-03-28T00:53:19.994Z,1005.08
2018-03-28T00:54:29.716Z,1005.08
2018-03-28T00:55:39.679Z,1005.06
2018-03-28T00:56:49.637Z,1005.08
2018-03-28T00:57:59.334Z,1005.06
2018-03-28T00:59:08.779Z,1005.04
2018-03-28T01:00:18.488Z,1005
2018-03-28T01:01:27.934Z,1005.02
2018-03-28T01:02:37.641Z,1004.99
2018-03-28T01:03:47.090Z,1004.98
2018-03-28T01:04:56.793Z,1005
2018-03-28T01:06:06.802Z,1004.97
2018-03-28T01:07:16.252Z,1004.99
2018-03-28T01:08:26.216Z,1004.97
2018-03-28T01:09:35.915Z,1005
2018-03-28T01:10:45.895Z,1004.9
2018-03-28T01:11:55.596Z,1004.9
2018-03-28T01:13:05.290Z,1004.88
2018-03-28T01:14:14.985Z,1004.89
2018-03-28T01:15:24.952Z,1004.85
2018-03-28T01:16:34.904Z,1004.86
2018-03-28T01:17:44.879Z,1004.84
2018-03-28T01:18:54.857Z,1004.81
2018-03-28T01:20:04.829Z,1004.77
2018-03-28T01:21:14.781Z,1004.78
2018-03-28T01:22:24.751Z,1004.77
2018-03-28T01:23:34.724Z,1004.76
2018-03-28T01:24:44.173Z,1004.74
2018-03-28T01:25:53.866Z,1004.72
2018-03-28T01:27:03.566Z,1004.72
2018-03-28T01:28:13.525Z,1004.73
2018-03-28T01:29:23.478Z,1004.72
2018-03-28T01:30:33.171Z,1004.76
2018-03-28T01:31:43.133Z,1004.74
2018-03-28T01:32:52.827Z,1004.72
2018-03-28T01:34:02.516Z,1004.7
2018-03-28T01:35:11.965Z,1004.69
2018-03-28T01:36:21.928Z,1004.67
2018-03-28T01:37:31.626Z,1004.71
2018-03-28T01:38:41.329Z,1004.66
2018-03-28T01:39:51.290Z,1004.67
2018-03-28T01:41:01.244Z,1004.64
2018-03-28T01:42:10.937Z,1004.58
2018-03-28T01:43:20.643Z,1004.59
2018-03-28T01:44:30.618Z,1004.62
2018-03-28T01:45:40.315Z,1004.58
2018-03-28T01:46:49.772Z,1004.6
2018-03-28T01:47:59.728Z,1004.55
2018-03-28T01:49:09.468Z,1004.56
2018-03-28T01:50:19.420Z,1004.53
2018-03-28T01:51:29.375Z,1004.51
2018-03-28T01:52:39.351Z,1004.48
2018-03-28T01:53:49.311Z,1004.49
2018-03-28T01:54:59.006Z,1004.49
2018-03-28T01:56:08.977Z,1004.44
2018-03-28T01:57:18.939Z,1004.43
2018-03-28T01:58:28.640Z,1004.41
2018-03-28T01:59:38.629Z,1004.44
2018-03-28T02:00:48.324Z,1004.4
2018-03-28T02:01:58.026Z,1004.39
2018-03-28T02:03:08.045Z,1004.39
2018-03-28T02:04:18.000Z,1004.31
2018-03-28T02:05:27.703Z,1004.31
2018-03-28T02:06:37.663Z,1004.3
2018-03-28T02:07:47.376Z,1004.27
2018-03-28T02:08:56.812Z,1004.25
2018-03-28T02:10:06.252Z,1004.24
2018-03-28T02:11:15.950Z,1004.18
2018-03-28T02:12:25.901Z,1004.19
2018-03-28T02:13:35.592Z,1004.17
2018-03-28T02:14:45.560Z,1004.18
2018-03-28T02:15:55.519Z,1004.16
2018-03-28T02:17:05.219Z,1004.17
2018-03-28T02:18:14.907Z,1004.16
2018-03-28T02:19:24.604Z,1004.17
2018-03-28T02:20:34.044Z,1004.17
2018-03-28T02:21:43.758Z,1004.13
2018-03-28T02:22:53.188Z,1004.1
2018-03-28T02:24:03.136Z,1004.09
2018-03-28T02:25:12.578Z,1004.05
2018-03-28T02:26:21.755Z,1004.08
2018-03-28T02:27:31.724Z,1004.03
2018-03-28T02:28:41.437Z,1004.02
2018-03-28T02:29:51.131Z,1004
2018-03-28T02:31:00.311Z,1003.99
2018-03-28T02:32:10.012Z,1003.98
2018-03-28T02:33:19.446Z,1003.97
2018-03-28T02:34:28.896Z,1003.96
2018-03-28T02:35:38.861Z,1003.95
2018-03-28T02:36:49.080Z,1003.93
2018-03-28T02:37:59.053Z,1003.91
2018-03-28T02:39:09.054Z,1003.91
2018-03-28T02:40:18.772Z,1003.9
2018-03-28T02:41:28.211Z,1003.9
2018-03-28T02:42:38.176Z,1003.88
2018-03-28T02:43:48.133Z,1003.86
2018-03-28T02:44:57.839Z,1003.82
2018-03-28T02:46:07.804Z,1003.85
2018-03-28T02:47:17.513Z,1003.83
2018-03-28T02:48:26.957Z,1003.86
2018-03-28T02:49:36.682Z,1003.86
2018-03-28T02:50:46.385Z,1003.85
2018-03-28T02:51:55.832Z,1003.88
2018-03-28T02:53:05.547Z,1003.87
2018-03-28T02:54:14.986Z,1003.87
2018-03-28T02:55:24.440Z,1003.81
2018-03-28T02:56:33.897Z,1003.81
2018-03-28T02:57:43.884Z,1003.8
2018-03-28T02:58:53.867Z,1003.8
2018-03-28T03:00:03.582Z,1003.81
2018-03-28T03:01:13.597Z,1003.84
2018-03-28T03:02:23.578Z,1003.81
2018-03-28T03:03:32.505Z,1003.79
2018-03-28T03:04:42.216Z,1003.77
2018-03-28T03:05:51.920Z,1003.77
2018-03-28T03:07:01.883Z,1003.81
2018-03-28T03:08:11.594Z,1003.8
2018-03-28T03:09:21.623Z,1003.81
2018-03-28T03:10:31.582Z,1003.75
2018-03-28T03:11:41.550Z,1003.78
2018-03-28T03:12:51.524Z,1003.78
2018-03-28T03:14:01.470Z,1003.71
2018-03-28T03:15:10.918Z,1003.69
2018-03-28T03:16:20.931Z,1003.67
2018-03-28T03:17:30.882Z,1003.67
2018-03-28T03:18:40.853Z,1003.7
2018-03-28T03:19:50.871Z,1003.66
2018-03-28T03:21:00.843Z,1003.62
2018-03-28T03:22:10.807Z,1003.62
2018-03-28T03:23:20.757Z,1003.58
2018-03-28T03:24:30.718Z,1003.56
2018-03-28T03:25:40.420Z,1003.55
2018-03-28T03:26:50.116Z,1003.56
2018-03-28T03:28:00.120Z,1003.57
2018-03-28T03:29:10.127Z,1003.57
2018-03-28T03:30:20.084Z,1003.63
2018-03-28T03:31:30.061Z,1003.57
2018-03-28T03:32:39.781Z,1003.58
2018-03-28T03:33:49.740Z,1003.55
2018-03-28T03:34:59.430Z,1003.55
2018-03-28T03:36:08.866Z,1003.6
2018-03-28T03:37:18.574Z,1003.57
2018-03-28T03:38:28.532Z,1003.59
2018-03-28T03:39:37.707Z,1003.53
2018-03-28T03:40:47.454Z,1003.6
2018-03-28T03:41:57.153Z,1003.62
2018-03-28T03:43:07.126Z,1003.61
2018-03-28T03:44:16.830Z,1003.62
2018-03-28T03:45:26.311Z,1003.62
2018-03-28T03:46:36.014Z,1003.63
2018-03-28T03:47:45.457Z,1003.65
2018-03-28T03:48:55.160Z,1003.6
2018-03-28T03:50:04.860Z,1003.57
2018-03-28T03:51:14.055Z,1003.58
2018-03-28T03:52:24.100Z,1003.58
2018-03-28T03:53:34.057Z,1003.62
2018-03-28T03:54:43.765Z,1003.62
2018-03-28T03:55:53.455Z,1003.62
2018-03-28T03:57:03.163Z,1003.61
2018-03-28T03:58:12.863Z,1003.6
2018-03-28T03:59:22.588Z,1003.58
2018-03-28T04:00:32.295Z,1003.57
2018-03-28T04:01:42.009Z,1003.59
2018-03-28T04:02:51.969Z,1003.55
2018-03-28T04:04:01.668Z,1003.49
2018-03-28T04:05:11.362Z,1003.48
2018-03-28T04:06:21.067Z,1003.46
2018-03-28T04:07:30.768Z,1003.48
2018-03-28T04:08:40.737Z,1003.44
2018-03-28T04:09:49.920Z,1003.42
2018-03-28T04:10:59.634Z,1003.45
2018-03-28T04:12:09.604Z,1003.44
2018-03-28T04:13:19.554Z,1003.42
2018-03-28T04:14:28.977Z,1003.44
2018-03-28T04:15:38.952Z,1003.43
2018-03-28T04:16:48.924Z,1003.41
2018-03-28T04:17:58.382Z,1003.39
2018-03-28T04:19:08.355Z,1003.41
2018-03-28T04:20:18.055Z,1003.36
2018-03-28T04:21:28.017Z,1003.34
2018-03-28T04:22:37.744Z,1003.32
2018-03-28T04:23:47.713Z,1003.29
2018-03-28T04:24:57.401Z,1003.26
2018-03-28T04:26:07.353Z,1003.3
2018-03-28T04:27:17.352Z,1003.28
2018-03-28T04:28:27.389Z,1003.25
2018-03-28T04:29:37.350Z,1003.25
2018-03-28T04:30:47.300Z,1003.27
2018-03-28T04:31:57.262Z,1003.27
2018-03-28T04:33:07.231Z,1003.29
2018-03-28T04:34:17.522Z,1003.3
2018-03-28T04:35:27.225Z,1003.27
2018-03-28T04:36:37.210Z,1003.25
2018-03-28T04:37:46.696Z,1003.22
2018-03-28T04:38:56.406Z,1003.2
2018-03-28T04:40:06.104Z,1003.23
2018-03-28T04:41:16.068Z,1003.22
2018-03-28T04:42:25.768Z,1003.21
2018-03-28T04:43:35.203Z,1003.25
2018-03-28T04:44:45.208Z,1003.24
2018-03-28T04:45:54.386Z,1003.25
2018-03-28T04:47:04.340Z,1003.25
2018-03-28T04:48:13.798Z,1003.22
2018-03-28T04:49:23.760Z,1003.22
2018-03-28T04:50:32.938Z,1003.24
2018-03-28T04:51:42.899Z,1003.21
2018-03-28T04:52:52.867Z,1003.3
2018-03-28T04:54:02.825Z,1003.29
2018-03-28T04:55:12.540Z,1003.3
2018-03-28T04:56:22.054Z,1003.27
2018-03-28T04:57:31.766Z,1003.23
2018-03-28T04:58:41.721Z,1003.24
2018-03-28T04:59:51.434Z,1003.22
2018-03-28T05:01:01.133Z,1003.22
2018-03-28T05:02:10.583Z,1003.19
2018-03-28T05:03:20.020Z,1003.2
2018-03-28T05:04:29.707Z,1003.21
2018-03-28T05:05:39.146Z,1003.23
2018-03-28T05:06:49.100Z,1003.23
2018-03-28T05:07:58.796Z,1003.23
2018-03-28T05:09:07.719Z,1003.23
2018-03-28T05:10:17.452Z,1003.22
2018-03-28T05:11:26.893Z,1003.23
2018-03-28T05:12:36.847Z,1003.22
2018-03-28T05:13:46.553Z,1003.29
2018-03-28T05:14:56.251Z,1003.26
2018-03-28T05:16:05.703Z,1003.25
2018-03-28T05:17:15.666Z,1003.23
2018-03-28T05:18:25.621Z,1003.22
2018-03-28T05:19:35.590Z,1003.22
2018-03-28T05:20:45.546Z,1003.23
2018-03-28T05:21:55.511Z,1003.25
2018-03-28T05:23:05.212Z,1003.28
2018-03-28T05:24:14.902Z,1003.26
2018-03-28T05:25:24.869Z,1003.25
2018-03-28T05:26:34.831Z,1003.31
2018-03-28T05:27:44.781Z,1003.29
2018-03-28T05:28:54.725Z,1003.35
2018-03-28T05:30:04.762Z,1003.33
2018-03-28T05:31:14.535Z,1003.31
2018-03-28T05:32:23.970Z,1003.34
2018-03-28T05:33:33.921Z,1003.38
2018-03-28T05:34:43.875Z,1003.38
2018-03-28T05:35:53.848Z,1003.32
2018-03-28T05:37:03.544Z,1003.37
2018-03-28T05:38:13.499Z,1003.33
2018-03-28T05:39:23.506Z,1003.38
2018-03-28T05:40:33.472Z,1003.35
2018-03-28T05:41:43.437Z,1003.36
2018-03-28T05:42:53.459Z,1003.37
2018-03-28T05:44:02.585Z,1003.35
2018-03-28T05:45:12.279Z,1003.33
2018-03-28T05:46:21.977Z,1003.35
2018-03-28T05:47:31.962Z,1003.35
2018-03-28T05:48:41.404Z,1003.35
2018-03-28T05:49:51.357Z,1003.36
2018-03-28T05:51:01.334Z,1003.37
2018-03-28T05:52:11.039Z,1003.36
2018-03-28T05:53:20.744Z,1003.35
2018-03-28T05:54:30.479Z,1003.33
2018-03-28T05:55:40.294Z,1003.37
2018-03-28T05:56:50.332Z,1003.36
2018-03-28T05:58:00.248Z,1003.35
2018-03-28T05:59:10.209Z,1003.3
2018-03-28T06:00:19.918Z,1003.34
2018-03-28T06:01:29.625Z,1003.28
2018-03-28T06:02:39.332Z,1003.32
2018-03-28T06:03:49.299Z,1003.36
2018-03-28T06:04:59.011Z,1003.32
2018-03-28T06:06:08.737Z,1003.38
2018-03-28T06:07:18.698Z,1003.39
2018-03-28T06:08:28.541Z,1003.38
2018-03-28T06:09:38.244Z,1003.38
2018-03-28T06:10:48.203Z,1003.34
2018-03-28T06:11:58.176Z,1003.3
2018-03-28T06:13:08.144Z,1003.28
2018-03-28T06:14:18.132Z,1003.24
2018-03-28T06:15:27.845Z,1003.26
2018-03-28T06:16:37.805Z,1003.22
2018-03-28T06:17:47.765Z,1003.17
2018-03-28T06:18:57.516Z,1003.16
2018-03-28T06:20:07.250Z,1003.11
2018-03-28T06:21:16.688Z,1003.17
2018-03-28T06:22:26.685Z,1003.15
2018-03-28T06:23:36.669Z,1003.09
2018-03-28T06:24:46.625Z,1003.1
2018-03-28T06:25:56.341Z,1003.06
2018-03-28T06:27:06.298Z,1003.03
2018-03-28T06:28:16.268Z,1002.97
2018-03-28T06:29:26.219Z,1002.98
2018-03-28T06:30:35.943Z,1002.95
2018-03-28T06:31:46.082Z,1002.94
2018-03-28T06:32:55.795Z,1002.89
2018-03-28T06:34:05.498Z,1002.93
2018-03-28T06:35:14.939Z,1002.84
2018-03-28T06:36:24.634Z,1002.85
2018-03-28T06:37:34.602Z,1002.9
2018-03-28T06:38:44.792Z,1002.8
2018-03-28T06:39:54.483Z,1002.85
2018-03-28T06:41:03.932Z,1002.9
2018-03-28T06:42:13.634Z,1002.88
2018-03-28T06:43:23.392Z,1002.82
2018-03-28T06:44:32.830Z,1002.81
2018-03-28T06:45:42.790Z,1002.79
2018-03-28T06:46:52.510Z,1002.83
2018-03-28T06:48:01.953Z,1002.81
2018-03-28T06:49:11.396Z,1002.81
2018-03-28T06:50:21.382Z,1002.78
2018-03-28T06:51:31.108Z,1002.87
2018-03-28T06:52:41.068Z,1002.85
2018-03-28T06:53:51.027Z,1002.93
2018-03-28T06:55:00.474Z,1002.99
2018-03-28T06:56:09.944Z,1003.07
2018-03-28T06:57:19.943Z,1003.06
2018-03-28T06:58:29.119Z,1003.05
2018-03-28T06:59:39.123Z,1003.06
2018-03-28T07:00:48.577Z,1003.09
2018-03-28T07:01:58.532Z,1003.05
2018-03-28T07:03:08.234Z,1003.06
2018-03-28T07:04:17.676Z,1003.01
2018-03-28T07:05:27.646Z,1003.01
2018-03-28T07:06:37.358Z,1002.99
2018-03-28T07:07:47.313Z,1002.94
2018-03-28T07:08:56.770Z,1003.02
2018-03-28T07:10:06.737Z,1003
2018-03-28T07:11:16.450Z,1002.99
2018-03-28T07:12:26.414Z,1002.99
2018-03-28T07:13:36.386Z,1002.99
2018-03-28T07:14:46.381Z,1002.95
2018-03-28T07:15:56.350Z,1002.94
2018-03-28T07:17:06.064Z,1002.87
2018-03-28T07:18:15.781Z,1002.86
2018-03-28T07:19:25.493Z,1002.86
2018-03-28T07:20:35.460Z,1002.91
2018-03-28T07:21:44.718Z,1002.9
2018-03-28T07:22:54.152Z,1002.9
2018-03-28T07:24:03.872Z,1002.86
2018-03-28T07:25:13.062Z,1002.89
2018-03-28T07:26:22.509Z,1002.84
2018-03-28T07:27:31.946Z,1002.93
2018-03-28T07:28:41.412Z,1002.9
2018-03-28T07:29:51.368Z,1002.9
2018-03-28T07:31:01.337Z,1002.93
2018-03-28T07:32:10.787Z,1002.94
2018-03-28T07:33:20.752Z,1002.94
2018-03-28T07:34:30.450Z,1002.97
2018-03-28T07:35:40.415Z,1002.94
2018-03-28T07:36:50.139Z,1002.94
2018-03-28T07:38:00.105Z,1002.9
2018-03-28T07:39:10.064Z,1002.99
2018-03-28T07:40:19.765Z,1002.97
2018-03-28T07:41:29.630Z,1002.96
2018-03-28T07:42:39.091Z,1002.94
2018-03-28T07:43:48.532Z,1002.92
2018-03-28T07:44:58.515Z,1002.88
2018-03-28T07:46:07.983Z,1002.87
2018-03-28T07:47:17.714Z,1002.85
2018-03-28T07:48:27.412Z,1002.86
2018-03-28T07:49:37.391Z,1002.82
2018-03-28T07:50:47.096Z,1002.75
2018-03-28T07:51:56.800Z,1002.73
2018-03-28T07:53:06.520Z,1002.77
2018-03-28T07:54:16.230Z,1002.77
2018-03-28T07:55:25.416Z,1002.75
2018-03-28T07:56:34.869Z,1002.74
2018-03-28T07:57:44.854Z,1002.73
2018-03-28T07:58:54.302Z,1002.72
2018-03-28T08:00:04.283Z,1002.72
2018-03-28T08:01:13.983Z,1002.68
2018-03-28T08:02:23.682Z,1002.7
2018-03-28T08:03:33.407Z,1002.64
2018-03-28T08:04:43.112Z,1002.7
2018-03-28T08:05:53.121Z,1002.65
2018-03-28T08:07:03.087Z,1002.68
2018-03-28T08:08:13.069Z,1002.68
2018-03-28T08:09:23.037Z,1002.71
2018-03-28T08:10:33.104Z,1002.71
2018-03-28T08:11:42.818Z,1002.72
2018-03-28T08:12:52.522Z,1002.71
2018-03-28T08:14:02.540Z,1002.67
2018-03-28T08:15:12.505Z,1002.67
2018-03-28T08:16:22.470Z,1002.63
2018-03-28T08:17:32.432Z,1002.61
2018-03-28T08:18:42.396Z,1002.63
2018-03-28T08:19:52.362Z,1002.61
2018-03-28T08:21:02.076Z,1002.63
2018-03-28T08:22:12.048Z,1002.62
2018-03-28T08:23:21.754Z,1002.63
2018-03-28T08:24:31.713Z,1002.62
2018-03-28T08:25:41.489Z,1002.57
2018-03-28T08:26:51.572Z,1002.56
2018-03-28T08:28:01.546Z,1002.49
2018-03-28T08:29:11.730Z,1002.45
2018-03-28T08:30:21.681Z,1002.5
2018-03-28T08:31:31.390Z,1002.5
2018-03-28T08:32:41.360Z,1002.47
2018-03-28T08:33:51.435Z,1002.39
2018-03-28T08:35:01.415Z,1002.38
2018-03-28T08:36:11.390Z,1002.41
2018-03-28T08:37:21.348Z,1002.4
2018-03-28T08:38:31.050Z,1002.32
2018-03-28T08:39:41.008Z,1002.26
2018-03-28T08:40:50.704Z,1002.2
2018-03-28T08:42:00.675Z,1002.24
2018-03-28T08:43:10.130Z,1002.25
2018-03-28T08:44:20.338Z,1002.26
2018-03-28T08:45:30.300Z,1002.28
2018-03-28T08:46:40.252Z,1002.22
2018-03-28T08:47:50.206Z,1002.3
2018-03-28T08:48:59.902Z,1002.27
2018-03-28T08:50:09.877Z,1002.28
2018-03-28T08:51:19.617Z,1002.24
2018-03-28T08:52:28.545Z,1002.21
2018-03-28T08:53:38.511Z,1002.17
2018-03-28T08:54:48.477Z,1002.17
2018-03-28T08:55:58.441Z,1002.09
2018-03-28T08:57:07.887Z,1002.17
2018-03-28T08:58:17.853Z,1002.19
2018-03-28T08:59:27.315Z,1002.23
2018-03-28T09:00:37.272Z,1002.19
2018-03-28T09:01:46.213Z,1002.19
2018-03-28T09:02:56.390Z,1002.19
2018-03-28T09:04:06.348Z,1002.15
2018-03-28T09:05:16.597Z,1002.21
2018-03-28T09:06:26.574Z,1002.17
2018-03-28T09:07:36.279Z,1002.13
2018-03-28T09:08:45.971Z,1002.16
2018-03-28T09:09:55.943Z,1002.15
2018-03-28T09:11:05.902Z,1002.13
2018-03-28T09:12:15.605Z,1002.02
2018-03-28T09:13:25.568Z,1002.05
2018-03-28T09:14:35.277Z,1002.03
2018-03-28T09:15:44.736Z,1002.03
2018-03-28T09:16:54.437Z,1002.05
2018-03-28T09:18:03.889Z,1002.01
2018-03-28T09:19:13.861Z,1002
2018-03-28T09:20:23.482Z,1002.02
2018-03-28T09:21:33.181Z,1001.98
2018-03-28T09:22:42.886Z,1002.03
2018-03-28T09:23:52.601Z,1001.98
2018-03-28T09:25:02.314Z,1001.92
2018-03-28T09:26:12.273Z,1001.98
2018-03-28T09:27:21.721Z,1001.98
2018-03-28T09:28:31.689Z,1001.97
2018-03-28T09:29:41.129Z,1002
2018-03-28T09:30:50.305Z,1002
2018-03-28T09:31:59.982Z,1001.99
2018-03-28T09:33:09.688Z,1002.04
2018-03-28T09:34:19.667Z,1002.02
2018-03-28T09:35:28.584Z,1001.94
2018-03-28T09:36:38.284Z,1001.93
2018-03-28T09:37:48.263Z,1001.91
2018-03-28T09:38:57.980Z,1001.87
2018-03-28T09:40:07.687Z,1001.91
2018-03-28T09:41:17.409Z,1001.84
2018-03-28T09:42:27.385Z,1001.89
2018-03-28T09:43:37.367Z,1001.87
2018-03-28T09:44:47.075Z,1001.83
2018-03-28T09:45:57.043Z,1001.83
2018-03-28T09:47:06.224Z,1001.8
2018-03-28T09:48:15.416Z,1001.76
2018-03-28T09:49:25.617Z,1001.86
2018-03-28T09:50:35.546Z,1001.82
2018-03-28T09:51:45.527Z,1001.83
2018-03-28T09:52:54.974Z,1001.83
2018-03-28T09:54:04.678Z,1001.82
2018-03-28T09:55:14.434Z,1001.81
2018-03-28T09:56:24.128Z,1001.8
2018-03-28T09:57:34.138Z,1001.82
2018-03-28T09:58:43.836Z,1001.85
2018-03-28T09:59:52.767Z,1001.87
2018-03-28T10:01:02.740Z,1001.88
2018-03-28T10:02:12.451Z,1001.9
2018-03-28T10:03:22.153Z,1001.86
2018-03-28T10:04:31.724Z,1001.94
2018-03-28T10:05:41.419Z,1001.93
2018-03-28T10:06:50.606Z,1001.93
2018-03-28T10:08:00.295Z,1001.86
2018-03-28T10:09:10.318Z,1001.9
2018-03-28T10:10:20.198Z,1001.98
2018-03-28T10:11:30.174Z,1001.95
2018-03-28T10:12:40.124Z,1001.9
2018-03-28T10:13:49.566Z,1001.93
2018-03-28T10:14:59.537Z,1001.92
2018-03-28T10:16:09.248Z,1001.89
2018-03-28T10:17:18.952Z,1001.95
2018-03-28T10:18:28.412Z,1001.91
2018-03-28T10:19:37.841Z,1002
2018-03-28T10:20:47.272Z,1001.94
2018-03-28T10:21:56.990Z,1001.94
2018-03-28T10:23:06.690Z,1001.93
2018-03-28T10:24:16.662Z,1001.97
2018-03-28T10:25:26.618Z,1002
2018-03-28T10:26:36.584Z,1001.95
2018-03-28T10:27:46.288Z,1001.95
2018-03-28T10:28:56.007Z,1001.9
2018-03-28T10:30:05.982Z,1001.9
2018-03-28T10:31:15.677Z,1001.93
2018-03-28T10:32:25.388Z,1001.95
2018-03-28T10:33:35.090Z,1001.98
2018-03-28T10:34:45.052Z,1001.95
2018-03-28T10:35:54.487Z,1001.9
2018-03-28T10:37:03.939Z,1001.94
2018-03-28T10:38:13.898Z,1001.92
2018-03-28T10:39:23.884Z,1001.9
2018-03-28T10:40:33.860Z,1001.86
2018-03-28T10:41:43.814Z,1001.9
2018-03-28T10:42:53.526Z,1001.96
2018-03-28T10:44:03.227Z,1001.91
2018-03-28T10:45:12.929Z,1001.9
2018-03-28T10:46:22.910Z,1001.85
2018-03-28T10:47:32.605Z,1001.83
2018-03-28T10:48:42.324Z,1001.84
2018-03-28T10:49:52.295Z,1001.75
2018-03-28T10:51:01.998Z,1001.78
2018-03-28T10:52:11.451Z,1001.77
2018-03-28T10:53:21.416Z,1001.74
2018-03-28T10:54:31.112Z,1001.73
2018-03-28T10:55:40.832Z,1001.73
2018-03-28T10:56:50.532Z,1001.69
2018-03-28T10:58:00.492Z,1001.66
2018-03-28T10:59:10.462Z,1001.64
2018-03-28T11:00:20.436Z,1001.62
2018-03-28T11:01:30.408Z,1001.7
2018-03-28T11:02:39.866Z,1001.63
2018-03-28T11:03:49.825Z,1001.62
2018-03-28T11:04:59.558Z,1001.54
2018-03-28T11:06:08.999Z,1001.56
2018-03-28T11:07:18.969Z,1001.51
2018-03-28T11:08:28.679Z,1001.5
2018-03-28T11:09:38.446Z,1001.5
2018-03-28T11:10:48.142Z,1001.44
2018-03-28T11:11:58.130Z,1001.5
2018-03-28T11:13:08.115Z,1001.47
2018-03-28T11:14:18.092Z,1001.45
2018-03-28T11:15:27.562Z,1001.42
2018-03-28T11:16:37.294Z,1001.38
2018-03-28T11:17:46.740Z,1001.41
2018-03-28T11:18:56.702Z,1001.35
2018-03-28T11:20:06.675Z,1001.35
2018-03-28T11:21:16.647Z,1001.39
2018-03-28T11:22:26.622Z,1001.35
2018-03-28T11:23:36.598Z,1001.3
2018-03-28T11:24:46.577Z,1001.37
2018-03-28T11:25:56.545Z,1001.36
2018-03-28T11:27:06.278Z,1001.38
2018-03-28T11:28:16.039Z,1001.36
2018-03-28T11:29:26.001Z,1001.39
2018-03-28T11:30:35.461Z,1001.3
2018-03-28T11:31:45.507Z,1001.29
2018-03-28T11:32:55.477Z,1001.33
2018-03-28T11:34:05.199Z,1001.36
2018-03-28T11:35:14.944Z,1001.3
2018-03-28T11:36:24.912Z,1001.37
2018-03-28T11:37:34.368Z,1001.4
2018-03-28T11:38:44.355Z,1001.37
2018-03-28T11:39:54.317Z,1001.36
2018-03-28T11:41:04.304Z,1001.37
2018-03-28T11:42:14.029Z,1001.36
2018-03-28T11:43:24.025Z,1001.33
2018-03-28T11:44:33.467Z,1001.31
2018-03-28T11:45:43.199Z,1001.3
2018-03-28T11:46:53.187Z,1001.3
2018-03-28T11:48:02.655Z,1001.25
2018-03-28T11:49:12.358Z,1001.3
2018-03-28T11:50:22.348Z,1001.25
2018-03-28T11:51:32.329Z,1001.25
2018-03-28T11:52:42.024Z,1001.26
2018-03-28T11:53:52.088Z,1001.27
2018-03-28T11:55:02.083Z,1001.29
2018-03-28T11:56:12.049Z,1001.18
2018-03-28T11:57:21.747Z,1001.23
2018-03-28T11:58:31.444Z,1001.19
2018-03-28T11:59:41.154Z,1001.22
2018-03-28T12:00:50.912Z,1001.21
2018-03-28T12:02:00.901Z,1001.24
2018-03-28T12:03:10.657Z,1001.23
2018-03-28T12:04:20.634Z,1001.19
2018-03-28T12:05:30.351Z,1001.23
2018-03-28T12:06:40.076Z,1001.23
2018-03-28T12:07:49.782Z,1001.25
2018-03-28T12:08:59.521Z,1001.26
2018-03-28T12:10:09.456Z,1001.23
2018-03-28T12:11:18.861Z,1001.13
2018-03-28T12:12:28.568Z,1001.17
2018-03-28T12:13:38.276Z,1001.15
2018-03-28T12:14:47.714Z,1001.18
2018-03-28T12:15:57.713Z,1001.21
2018-03-28T12:17:07.541Z,1001.22
2018-03-28T12:18:17.259Z,1001.21
2018-03-28T12:19:26.710Z,1001.25
2018-03-28T12:20:36.410Z,1001.22
2018-03-28T12:21:45.868Z,1001.26
2018-03-28T12:22:55.603Z,1001.2
2018-03-28T12:24:05.303Z,1001.22
2018-03-28T12:25:14.763Z,1001.24
2018-03-28T12:26:24.523Z,1001.19
2018-03-28T12:27:34.234Z,1001.17
2018-03-28T12:28:44.178Z,1001.2
2018-03-28T12:29:53.652Z,1001.16
2018-03-28T12:31:03.604Z,1001.05
2018-03-28T12:32:13.299Z,1001.16
2018-03-28T12:33:23.286Z,1001.04
2018-03-28T12:34:33.257Z,1001.05
2018-03-28T12:35:42.689Z,1001.09
2018-03-28T12:36:51.872Z,1001.12
2018-03-28T12:38:01.885Z,1001.06
2018-03-28T12:39:11.331Z,1001.02
2018-03-28T12:40:21.044Z,1001.06
2018-03-28T12:41:30.750Z,1001.06
2018-03-28T12:42:40.458Z,1000.93
2018-03-28T12:43:50.411Z,1001.04
2018-03-28T12:45:00.126Z,1001.03
2018-03-28T12:46:09.827Z,1000.98
2018-03-28T12:47:19.550Z,1000.99
2018-03-28T12:48:29.300Z,1001
2018-03-28T12:49:38.867Z,1000.94
2018-03-28T12:50:49.518Z,1000.96
2018-03-28T12:51:59.587Z,1001
2018-03-28T12:53:09.605Z,1000.98
2018-03-28T12:54:19.676Z,1001.03
2018-03-28T12:55:29.852Z,1000.98
2018-03-28T12:56:40.019Z,1001.04
2018-03-28T12:57:49.460Z,1001.01
2018-03-28T12:58:58.914Z,1000.98
2018-03-28T13:00:08.636Z,1001.07
2018-03-28T13:01:18.609Z,1001.09
2018-03-28T13:02:28.608Z,1001.07
2018-03-28T13:03:38.360Z,1001.04
2018-03-28T13:04:48.338Z,1001.1
2018-03-28T13:05:58.347Z,1001.06
2018-03-28T13:07:08.312Z,1001
2018-03-28T13:08:18.023Z,1001.07
2018-03-28T13:09:27.985Z,1001.06
2018-03-28T13:10:37.965Z,1001.04
2018-03-28T13:11:47.940Z,1001
2018-03-28T13:12:57.892Z,1000.97
2018-03-28T13:14:07.587Z,1001.05
2018-03-28T13:15:16.776Z,1001.01
2018-03-28T13:16:26.744Z,1001
2018-03-28T13:17:36.438Z,1001.03
2018-03-28T13:18:46.396Z,1000.97
2018-03-28T13:19:55.865Z,1000.98
2018-03-28T13:21:05.836Z,1000.96
2018-03-28T13:22:15.536Z,1000.91
2018-03-28T13:23:25.491Z,1000.91
2018-03-28T13:24:35.460Z,1000.95
2018-03-28T13:25:45.187Z,1000.81
2018-03-28T13:26:54.879Z,1000.78
2018-03-28T13:28:04.595Z,1000.84
2018-03-28T13:29:14.570Z,1000.82
2018-03-28T13:30:24.550Z,1000.83
2018-03-28T13:31:34.043Z,1000.87
2018-03-28T13:32:44.059Z,1000.7
2018-03-28T13:33:53.758Z,1000.87
2018-03-28T13:35:03.743Z,1000.83
2018-03-28T13:36:13.734Z,1000.8
2018-03-28T13:37:23.720Z,1000.56
2018-03-28T13:38:33.703Z,1000.65
2018-03-28T13:39:43.193Z,1000.61
2018-03-28T13:40:53.161Z,1000.6
2018-03-28T13:42:02.608Z,1000.55
2018-03-28T13:43:12.043Z,1000.52
2018-03-28T13:44:22.002Z,1000.47
2018-03-28T13:45:31.706Z,1000.46
2018-03-28T13:46:41.671Z,1000.48
2018-03-28T13:47:51.646Z,1000.52
2018-03-28T13:49:01.601Z,1000.5
2018-03-28T13:50:11.053Z,1000.42
2018-03-28T13:51:21.015Z,1000.44
2018-03-28T13:52:30.997Z,1000.4
2018-03-28T13:53:40.462Z,1000.45
2018-03-28T13:54:50.162Z,1000.46
2018-03-28T13:56:00.121Z,1000.43
2018-03-28T13:57:09.567Z,1000.37
2018-03-28T13:58:19.549Z,1000.31
2018-03-28T13:59:28.988Z,1000.26
2018-03-28T14:00:38.686Z,1000.26
2018-03-28T14:01:48.444Z,1000.35
2018-03-28T14:02:58.428Z,1000.26
2018-03-28T14:04:08.387Z,1000.23
2018-03-28T14:05:18.351Z,1000.19
2018-03-28T14:06:28.316Z,1000.19
2018-03-28T14:07:38.273Z,1000.2
2018-03-28T14:08:48.226Z,1000.11